sensor_id;sensor_type;location;lat;lon;timestamp;temperature;humidity
27492;DHT22;14927;51.210;6.838;2022-07-22T00:02:02;22.20;64.50
27492;DHT22;14927;51.210;6.838;2022-07-22T00:04:47;22.10;64.40
27492;DHT22;14927;51.210;6.838;2022-07-22T00:07:31;22.10;64.30
27492;DHT22;14927;51.210;6.838;2022-07-22T00:10:16;22.10;64.30
27492;DHT22;14927;51.210;6.838;2022-07-22T00:13:01;22.10;64.30
27492;DHT22;14927;51.210;6.838;2022-07-22T00:15:46;22.10;64.30
27492;DHT22;14927;51.210;6.838;2022-07-22T00:18:30;22.10;64.50
27492;DHT22;14927;51.210;6.838;2022-07-22T00:21:15;22.00;64.60
27492;DHT22;14927;51.210;6.838;2022-07-22T00:24:00;22.10;65.00
27492;DHT22;14927;51.210;6.838;2022-07-22T00:26:44;22.00;64.90
27492;DHT22;14927;51.210;6.838;2022-07-22T00:29:29;22.00;65.00
27492;DHT22;14927;51.210;6.838;2022-07-22T00:32:13;22.00;65.00
27492;DHT22;14927;51.210;6.838;2022-07-22T00:34:58;22.00;65.00
27492;DHT22;14927;51.210;6.838;2022-07-22T00:37:42;22.00;65.20
27492;DHT22;14927;51.210;6.838;2022-07-22T00:40:27;22.00;65.40
27492;DHT22;14927;51.210;6.838;2022-07-22T00:43:11;22.00;65.50
27492;DHT22;14927;51.210;6.838;2022-07-22T00:45:56;21.90;65.50
27492;DHT22;14927;51.210;6.838;2022-07-22T00:48:41;21.90;65.50
27492;DHT22;14927;51.210;6.838;2022-07-22T00:51:26;21.90;65.60
27492;DHT22;14927;51.210;6.838;2022-07-22T00:54:12;21.90;65.70
27492;DHT22;14927;51.210;6.838;2022-07-22T00:56:56;21.80;65.70
27492;DHT22;14927;51.210;6.838;2022-07-22T00:59:41;21.90;65.90
27492;DHT22;14927;51.210;6.838;2022-07-22T01:02:27;21.80;66.10
27492;DHT22;14927;51.210;6.838;2022-07-22T01:05:12;21.80;66.30
27492;DHT22;14927;51.210;6.838;2022-07-22T01:07:56;21.80;66.30
27492;DHT22;14927;51.210;6.838;2022-07-22T01:10:41;21.70;66.30
27492;DHT22;14927;51.210;6.838;2022-07-22T01:13:25;21.70;66.40
27492;DHT22;14927;51.210;6.838;2022-07-22T01:16:11;21.70;66.60
27492;DHT22;14927;51.210;6.838;2022-07-22T01:18:57;21.70;66.90
27492;DHT22;14927;51.210;6.838;2022-07-22T01:21:41;21.70;67.00
27492;DHT22;14927;51.210;6.838;2022-07-22T01:24:26;21.70;66.90
27492;DHT22;14927;51.210;6.838;2022-07-22T01:27:10;21.70;66.90
27492;DHT22;14927;51.210;6.838;2022-07-22T01:29:55;21.70;66.90
27492;DHT22;14927;51.210;6.838;2022-07-22T01:32:40;21.70;66.90
27492;DHT22;14927;51.210;6.838;2022-07-22T01:35:24;21.70;67.00
27492;DHT22;14927;51.210;6.838;2022-07-22T01:38:09;21.70;67.00
27492;DHT22;14927;51.210;6.838;2022-07-22T01:40:54;21.70;67.10
27492;DHT22;14927;51.210;6.838;2022-07-22T01:43:39;21.60;67.00
27492;DHT22;14927;51.210;6.838;2022-07-22T01:46:24;21.70;66.90
27492;DHT22;14927;51.210;6.838;2022-07-22T01:49:09;21.60;67.00
27492;DHT22;14927;51.210;6.838;2022-07-22T01:51:53;21.70;67.00
27492;DHT22;14927;51.210;6.838;2022-07-22T01:54:38;21.60;67.10
27492;DHT22;14927;51.210;6.838;2022-07-22T01:57:23;21.60;67.20
27492;DHT22;14927;51.210;6.838;2022-07-22T02:00:09;21.60;67.30
27492;DHT22;14927;51.210;6.838;2022-07-22T02:02:55;21.70;67.40
27492;DHT22;14927;51.210;6.838;2022-07-22T02:05:40;21.60;67.00
27492;DHT22;14927;51.210;6.838;2022-07-22T02:08:24;21.60;66.70
27492;DHT22;14927;51.210;6.838;2022-07-22T02:11:09;21.60;66.80
27492;DHT22;14927;51.210;6.838;2022-07-22T02:13:53;21.60;66.80
27492;DHT22;14927;51.210;6.838;2022-07-22T02:16:38;21.60;66.90
27492;DHT22;14927;51.210;6.838;2022-07-22T02:19:23;21.70;67.10
27492;DHT22;14927;51.210;6.838;2022-07-22T02:22:07;21.60;67.00
27492;DHT22;14927;51.210;6.838;2022-07-22T02:24:52;21.60;67.00
27492;DHT22;14927;51.210;6.838;2022-07-22T02:27:37;21.60;67.10
27492;DHT22;14927;51.210;6.838;2022-07-22T02:30:22;21.60;67.10
27492;DHT22;14927;51.210;6.838;2022-07-22T02:33:06;21.60;67.20
27492;DHT22;14927;51.210;6.838;2022-07-22T02:35:51;21.60;67.20
27492;DHT22;14927;51.210;6.838;2022-07-22T02:38:36;21.60;67.10
27492;DHT22;14927;51.210;6.838;2022-07-22T02:41:21;21.60;67.10
27492;DHT22;14927;51.210;6.838;2022-07-22T02:44:05;21.60;67.00
27492;DHT22;14927;51.210;6.838;2022-07-22T02:46:50;21.60;66.90
27492;DHT22;14927;51.210;6.838;2022-07-22T02:49:34;21.70;66.90
27492;DHT22;14927;51.210;6.838;2022-07-22T02:52:19;21.70;66.80
27492;DHT22;14927;51.210;6.838;2022-07-22T02:55:04;21.70;66.70
27492;DHT22;14927;51.210;6.838;2022-07-22T02:57:49;21.70;66.80
27492;DHT22;14927;51.210;6.838;2022-07-22T03:00:35;21.70;66.80
27492;DHT22;14927;51.210;6.838;2022-07-22T03:03:22;21.70;66.80
27492;DHT22;14927;51.210;6.838;2022-07-22T03:06:06;21.60;66.80
27492;DHT22;14927;51.210;6.838;2022-07-22T03:08:51;21.60;67.00
27492;DHT22;14927;51.210;6.838;2022-07-22T03:11:36;21.60;66.80
27492;DHT22;14927;51.210;6.838;2022-07-22T03:14:20;21.60;66.40
27492;DHT22;14927;51.210;6.838;2022-07-22T03:17:06;21.60;66.20
27492;DHT22;14927;51.210;6.838;2022-07-22T03:19:50;21.60;66.20
27492;DHT22;14927;51.210;6.838;2022-07-22T03:22:35;21.60;66.20
27492;DHT22;14927;51.210;6.838;2022-07-22T03:25:20;21.60;66.20
27492;DHT22;14927;51.210;6.838;2022-07-22T03:28:06;21.60;66.40
27492;DHT22;14927;51.210;6.838;2022-07-22T03:30:50;21.60;66.50
27492;DHT22;14927;51.210;6.838;2022-07-22T03:33:35;21.60;66.40
27492;DHT22;14927;51.210;6.838;2022-07-22T03:36:19;21.60;66.50
27492;DHT22;14927;51.210;6.838;2022-07-22T03:39:04;21.60;66.50
27492;DHT22;14927;51.210;6.838;2022-07-22T03:41:49;21.60;66.70
27492;DHT22;14927;51.210;6.838;2022-07-22T03:44:33;21.60;66.70
27492;DHT22;14927;51.210;6.838;2022-07-22T03:47:19;21.60;66.60
27492;DHT22;14927;51.210;6.838;2022-07-22T03:50:05;21.60;66.60
27492;DHT22;14927;51.210;6.838;2022-07-22T03:52:50;21.60;66.60
27492;DHT22;14927;51.210;6.838;2022-07-22T03:55:34;21.50;66.50
27492;DHT22;14927;51.210;6.838;2022-07-22T03:58:19;21.50;66.60
27492;DHT22;14927;51.210;6.838;2022-07-22T04:01:03;21.50;66.60
27492;DHT22;14927;51.210;6.838;2022-07-22T04:03:48;21.50;66.70
27492;DHT22;14927;51.210;6.838;2022-07-22T04:06:32;21.50;66.80
27492;DHT22;14927;51.210;6.838;2022-07-22T04:09:18;21.50;66.90
27492;DHT22;14927;51.210;6.838;2022-07-22T04:12:02;21.50;67.10
27492;DHT22;14927;51.210;6.838;2022-07-22T04:14:47;21.50;67.10
27492;DHT22;14927;51.210;6.838;2022-07-22T04:17:32;21.50;67.20
27492;DHT22;14927;51.210;6.838;2022-07-22T04:20:16;21.50;67.20
27492;DHT22;14927;51.210;6.838;2022-07-22T04:23:01;21.50;67.10
27492;DHT22;14927;51.210;6.838;2022-07-22T04:25:46;21.50;67.10
27492;DHT22;14927;51.210;6.838;2022-07-22T04:28:33;21.50;67.20
27492;DHT22;14927;51.210;6.838;2022-07-22T04:31:18;21.50;67.40
27492;DHT22;14927;51.210;6.838;2022-07-22T04:34:03;21.50;67.40
27492;DHT22;14927;51.210;6.838;2022-07-22T04:36:47;21.50;67.10
27492;DHT22;14927;51.210;6.838;2022-07-22T04:39:32;21.50;67.00
27492;DHT22;14927;51.210;6.838;2022-07-22T04:42:17;21.50;66.80
27492;DHT22;14927;51.210;6.838;2022-07-22T04:45:01;21.50;66.60
27492;DHT22;14927;51.210;6.838;2022-07-22T04:47:46;21.50;66.40
27492;DHT22;14927;51.210;6.838;2022-07-22T04:50:30;21.40;66.10
27492;DHT22;14927;51.210;6.838;2022-07-22T04:53:15;21.40;65.90
27492;DHT22;14927;51.210;6.838;2022-07-22T04:56:00;21.40;65.70
27492;DHT22;14927;51.210;6.838;2022-07-22T04:58:45;21.40;65.70
27492;DHT22;14927;51.210;6.838;2022-07-22T05:01:29;21.40;65.60
27492;DHT22;14927;51.210;6.838;2022-07-22T05:04:14;21.40;65.50
27492;DHT22;14927;51.210;6.838;2022-07-22T05:06:58;21.40;65.60
27492;DHT22;14927;51.210;6.838;2022-07-22T05:09:43;21.40;65.30
27492;DHT22;14927;51.210;6.838;2022-07-22T05:12:27;21.40;65.10
27492;DHT22;14927;51.210;6.838;2022-07-22T05:15:12;21.40;65.30
27492;DHT22;14927;51.210;6.838;2022-07-22T05:17:57;21.40;65.50
27492;DHT22;14927;51.210;6.838;2022-07-22T05:20:42;21.40;65.50
27492;DHT22;14927;51.210;6.838;2022-07-22T05:23:27;21.40;65.60
27492;DHT22;14927;51.210;6.838;2022-07-22T05:26:11;21.40;65.70
27492;DHT22;14927;51.210;6.838;2022-07-22T05:28:56;21.40;65.90
27492;DHT22;14927;51.210;6.838;2022-07-22T05:31:42;21.40;66.00
27492;DHT22;14927;51.210;6.838;2022-07-22T05:34:28;21.40;65.60
27492;DHT22;14927;51.210;6.838;2022-07-22T05:37:13;21.40;65.50
27492;DHT22;14927;51.210;6.838;2022-07-22T05:40:00;21.40;65.60
27492;DHT22;14927;51.210;6.838;2022-07-22T05:42:44;21.40;65.80
27492;DHT22;14927;51.210;6.838;2022-07-22T05:45:29;21.40;65.90
27492;DHT22;14927;51.210;6.838;2022-07-22T05:48:14;21.40;65.70
27492;DHT22;14927;51.210;6.838;2022-07-22T05:50:58;21.40;65.80
27492;DHT22;14927;51.210;6.838;2022-07-22T05:53:43;21.50;66.00
27492;DHT22;14927;51.210;6.838;2022-07-22T05:56:28;21.50;66.00
27492;DHT22;14927;51.210;6.838;2022-07-22T05:59:12;21.50;68.10
27492;DHT22;14927;51.210;6.838;2022-07-22T06:01:57;21.60;70.10
27492;DHT22;14927;51.210;6.838;2022-07-22T06:04:42;21.90;70.40
27492;DHT22;14927;51.210;6.838;2022-07-22T06:07:27;22.30;69.20
27492;DHT22;14927;51.210;6.838;2022-07-22T06:10:11;22.70;67.30
27492;DHT22;14927;51.210;6.838;2022-07-22T06:12:56;23.20;65.70
27492;DHT22;14927;51.210;6.838;2022-07-22T06:15:40;23.60;63.90
27492;DHT22;14927;51.210;6.838;2022-07-22T06:18:25;24.10;62.10
27492;DHT22;14927;51.210;6.838;2022-07-22T06:21:10;24.40;60.30
27492;DHT22;14927;51.210;6.838;2022-07-22T06:23:54;24.80;59.20
27492;DHT22;14927;51.210;6.838;2022-07-22T06:26:39;25.10;58.00
27492;DHT22;14927;51.210;6.838;2022-07-22T06:29:23;25.40;57.10
27492;DHT22;14927;51.210;6.838;2022-07-22T06:32:08;25.60;56.30
27492;DHT22;14927;51.210;6.838;2022-07-22T06:34:53;25.80;55.60
27492;DHT22;14927;51.210;6.838;2022-07-22T06:37:37;26.00;54.90
27492;DHT22;14927;51.210;6.838;2022-07-22T06:40:22;26.20;54.40
27492;DHT22;14927;51.210;6.838;2022-07-22T06:43:06;26.30;53.80
27492;DHT22;14927;51.210;6.838;2022-07-22T06:45:51;26.40;53.70
27492;DHT22;14927;51.210;6.838;2022-07-22T06:48:35;26.50;53.30
27492;DHT22;14927;51.210;6.838;2022-07-22T06:51:20;26.60;53.20
27492;DHT22;14927;51.210;6.838;2022-07-22T06:54:05;26.60;52.90
27492;DHT22;14927;51.210;6.838;2022-07-22T06:56:49;26.70;52.90
27492;DHT22;14927;51.210;6.838;2022-07-22T06:59:35;26.80;52.20
27492;DHT22;14927;51.210;6.838;2022-07-22T07:02:19;26.70;51.40
27492;DHT22;14927;51.210;6.838;2022-07-22T07:05:04;26.60;51.10
27492;DHT22;14927;51.210;6.838;2022-07-22T07:07:49;26.50;51.20
27492;DHT22;14927;51.210;6.838;2022-07-22T07:10:34;26.30;51.30
27492;DHT22;14927;51.210;6.838;2022-07-22T07:13:19;26.10;51.40
27492;DHT22;14927;51.210;6.838;2022-07-22T07:16:04;25.90;51.90
27492;DHT22;14927;51.210;6.838;2022-07-22T07:18:49;25.60;52.20
27492;DHT22;14927;51.210;6.838;2022-07-22T07:21:33;25.40;52.40
27492;DHT22;14927;51.210;6.838;2022-07-22T07:24:18;25.20;52.70
27492;DHT22;14927;51.210;6.838;2022-07-22T07:27:02;25.00;53.20
27492;DHT22;14927;51.210;6.838;2022-07-22T07:29:47;24.80;53.70
27492;DHT22;14927;51.210;6.838;2022-07-22T07:32:32;24.60;53.90
27492;DHT22;14927;51.210;6.838;2022-07-22T07:35:16;24.50;54.20
27492;DHT22;14927;51.210;6.838;2022-07-22T07:38:01;24.30;54.00
27492;DHT22;14927;51.210;6.838;2022-07-22T07:40:45;24.20;54.30
27492;DHT22;14927;51.210;6.838;2022-07-22T07:43:30;24.10;54.60
27492;DHT22;14927;51.210;6.838;2022-07-22T07:46:15;24.00;54.90
27492;DHT22;14927;51.210;6.838;2022-07-22T07:49:00;23.90;55.40
27492;DHT22;14927;51.210;6.838;2022-07-22T07:51:44;23.80;55.60
27492;DHT22;14927;51.210;6.838;2022-07-22T07:54:29;23.70;55.60
27492;DHT22;14927;51.210;6.838;2022-07-22T07:57:14;23.60;55.80
27492;DHT22;14927;51.210;6.838;2022-07-22T07:59:59;23.60;56.00
27492;DHT22;14927;51.210;6.838;2022-07-22T08:02:44;23.50;55.90
27492;DHT22;14927;51.210;6.838;2022-07-22T08:05:29;23.50;56.00
27492;DHT22;14927;51.210;6.838;2022-07-22T08:08:14;23.30;55.80
27492;DHT22;14927;51.210;6.838;2022-07-22T08:10:58;23.30;55.90
27492;DHT22;14927;51.210;6.838;2022-07-22T08:13:43;23.30;56.10
27492;DHT22;14927;51.210;6.838;2022-07-22T08:16:27;23.30;56.50
27492;DHT22;14927;51.210;6.838;2022-07-22T08:19:12;23.20;56.70
27492;DHT22;14927;51.210;6.838;2022-07-22T08:21:57;23.20;57.00
27492;DHT22;14927;51.210;6.838;2022-07-22T08:24:41;23.20;57.20
27492;DHT22;14927;51.210;6.838;2022-07-22T08:27:26;23.20;57.10
27492;DHT22;14927;51.210;6.838;2022-07-22T08:30:12;23.20;57.60
27492;DHT22;14927;51.210;6.838;2022-07-22T08:32:57;23.20;56.90
27492;DHT22;14927;51.210;6.838;2022-07-22T08:35:42;23.20;57.10
27492;DHT22;14927;51.210;6.838;2022-07-22T08:38:27;23.20;56.80
27492;DHT22;14927;51.210;6.838;2022-07-22T08:41:13;23.20;56.40
27492;DHT22;14927;51.210;6.838;2022-07-22T08:43:58;23.20;56.60
27492;DHT22;14927;51.210;6.838;2022-07-22T08:46:46;23.20;56.50
27492;DHT22;14927;51.210;6.838;2022-07-22T08:49:31;23.20;56.20
27492;DHT22;14927;51.210;6.838;2022-07-22T08:52:16;23.20;56.20
27492;DHT22;14927;51.210;6.838;2022-07-22T08:55:06;23.20;56.80
27492;DHT22;14927;51.210;6.838;2022-07-22T08:57:52;23.20;56.00
27492;DHT22;14927;51.210;6.838;2022-07-22T09:00:37;23.10;56.00
27492;DHT22;14927;51.210;6.838;2022-07-22T09:03:24;23.20;56.00
27492;DHT22;14927;51.210;6.838;2022-07-22T09:06:11;23.10;55.80
27492;DHT22;14927;51.210;6.838;2022-07-22T09:09:01;23.10;56.00
27492;DHT22;14927;51.210;6.838;2022-07-22T09:11:48;23.10;56.20
27492;DHT22;14927;51.210;6.838;2022-07-22T09:14:51;23.10;56.20
27492;DHT22;14927;51.210;6.838;2022-07-22T09:17:37;23.10;56.20
27492;DHT22;14927;51.210;6.838;2022-07-22T09:20:22;23.10;56.50
27492;DHT22;14927;51.210;6.838;2022-07-22T09:23:15;23.10;56.60
27492;DHT22;14927;51.210;6.838;2022-07-22T09:26:02;23.10;56.30
27492;DHT22;14927;51.210;6.838;2022-07-22T09:28:55;23.20;56.50
27492;DHT22;14927;51.210;6.838;2022-07-22T09:31:42;23.20;56.50
27492;DHT22;14927;51.210;6.838;2022-07-22T09:34:34;23.20;56.50
27492;DHT22;14927;51.210;6.838;2022-07-22T09:37:18;23.20;56.40
27492;DHT22;14927;51.210;6.838;2022-07-22T09:40:18;23.20;56.60
27492;DHT22;14927;51.210;6.838;2022-07-22T09:43:10;23.20;56.50
27492;DHT22;14927;51.210;6.838;2022-07-22T09:45:57;23.20;56.50
27492;DHT22;14927;51.210;6.838;2022-07-22T09:48:42;23.20;56.40
27492;DHT22;14927;51.210;6.838;2022-07-22T09:51:27;23.30;56.20
27492;DHT22;14927;51.210;6.838;2022-07-22T09:54:13;23.30;56.20
27492;DHT22;14927;51.210;6.838;2022-07-22T09:56:58;23.30;56.40
27492;DHT22;14927;51.210;6.838;2022-07-22T09:59:43;23.30;56.30
27492;DHT22;14927;51.210;6.838;2022-07-22T10:02:28;23.30;56.10
27492;DHT22;14927;51.210;6.838;2022-07-22T10:05:15;23.30;56.10
27492;DHT22;14927;51.210;6.838;2022-07-22T10:08:02;23.40;56.50
27492;DHT22;14927;51.210;6.838;2022-07-22T10:10:48;23.50;56.30
27492;DHT22;14927;51.210;6.838;2022-07-22T10:13:32;23.50;56.30
27492;DHT22;14927;51.210;6.838;2022-07-22T10:16:18;23.60;56.00
27492;DHT22;14927;51.210;6.838;2022-07-22T10:19:03;23.60;55.90
27492;DHT22;14927;51.210;6.838;2022-07-22T10:21:48;23.70;55.40
27492;DHT22;14927;51.210;6.838;2022-07-22T10:24:33;23.80;55.10
27492;DHT22;14927;51.210;6.838;2022-07-22T10:27:48;23.80;55.10
27492;DHT22;14927;51.210;6.838;2022-07-22T10:30:36;23.90;54.90
27492;DHT22;14927;51.210;6.838;2022-07-22T10:33:29;24.00;55.10
27492;DHT22;14927;51.210;6.838;2022-07-22T10:36:14;24.00;55.50
27492;DHT22;14927;51.210;6.838;2022-07-22T10:39:17;24.10;55.00
27492;DHT22;14927;51.210;6.838;2022-07-22T10:42:01;24.20;54.20
27492;DHT22;14927;51.210;6.838;2022-07-22T10:44:46;24.30;54.30
27492;DHT22;14927;51.210;6.838;2022-07-22T10:47:55;24.40;54.00
27492;DHT22;14927;51.210;6.838;2022-07-22T10:50:55;24.40;53.40
27492;DHT22;14927;51.210;6.838;2022-07-22T10:56:36;24.60;53.40
27492;DHT22;14927;51.210;6.838;2022-07-22T10:59:23;24.70;52.80
27492;DHT22;14927;51.210;6.838;2022-07-22T11:02:11;24.80;52.70
27492;DHT22;14927;51.210;6.838;2022-07-22T11:04:57;24.90;52.40
27492;DHT22;14927;51.210;6.838;2022-07-22T11:07:46;25.00;52.40
27492;DHT22;14927;51.210;6.838;2022-07-22T11:10:30;25.00;52.10
27492;DHT22;14927;51.210;6.838;2022-07-22T11:13:35;25.10;52.50
27492;DHT22;14927;51.210;6.838;2022-07-22T11:16:26;25.20;52.60
27492;DHT22;14927;51.210;6.838;2022-07-22T11:19:12;25.20;52.00
27492;DHT22;14927;51.210;6.838;2022-07-22T11:21:59;25.30;51.90
27492;DHT22;14927;51.210;6.838;2022-07-22T11:24:48;25.40;51.60
27492;DHT22;14927;51.210;6.838;2022-07-22T11:27:33;25.50;51.30
27492;DHT22;14927;51.210;6.838;2022-07-22T11:30:18;25.60;50.80
27492;DHT22;14927;51.210;6.838;2022-07-22T11:33:03;25.60;50.40
27492;DHT22;14927;51.210;6.838;2022-07-22T11:36:08;25.70;50.30
27492;DHT22;14927;51.210;6.838;2022-07-22T11:38:54;25.70;49.80
27492;DHT22;14927;51.210;6.838;2022-07-22T11:41:39;25.70;50.20
27492;DHT22;14927;51.210;6.838;2022-07-22T11:44:26;25.80;50.20
27492;DHT22;14927;51.210;6.838;2022-07-22T11:47:11;25.80;49.90
27492;DHT22;14927;51.210;6.838;2022-07-22T11:49:56;25.90;50.20
27492;DHT22;14927;51.210;6.838;2022-07-22T11:52:51;25.90;50.10
27492;DHT22;14927;51.210;6.838;2022-07-22T11:55:37;26.00;50.00
27492;DHT22;14927;51.210;6.838;2022-07-22T11:58:47;26.10;49.40
27492;DHT22;14927;51.210;6.838;2022-07-22T12:01:36;26.20;48.30
27492;DHT22;14927;51.210;6.838;2022-07-22T12:04:26;26.30;48.20
27492;DHT22;14927;51.210;6.838;2022-07-22T12:07:12;26.40;48.20
27492;DHT22;14927;51.210;6.838;2022-07-22T12:09:57;26.40;48.00
27492;DHT22;14927;51.210;6.838;2022-07-22T12:12:42;26.50;47.70
27492;DHT22;14927;51.210;6.838;2022-07-22T12:15:26;26.60;47.70
27492;DHT22;14927;51.210;6.838;2022-07-22T12:18:22;26.60;47.50
27492;DHT22;14927;51.210;6.838;2022-07-22T12:21:08;26.70;46.50
27492;DHT22;14927;51.210;6.838;2022-07-22T12:23:55;26.70;46.80
27492;DHT22;14927;51.210;6.838;2022-07-22T12:26:48;26.80;46.20
27492;DHT22;14927;51.210;6.838;2022-07-22T12:35:08;26.90;46.20
27492;DHT22;14927;51.210;6.838;2022-07-22T12:37:53;26.90;46.10
27492;DHT22;14927;51.210;6.838;2022-07-22T12:40:38;27.00;46.10
27492;DHT22;14927;51.210;6.838;2022-07-22T12:43:26;27.00;46.10
27492;DHT22;14927;51.210;6.838;2022-07-22T12:46:11;27.10;46.30
27492;DHT22;14927;51.210;6.838;2022-07-22T12:48:55;27.10;46.70
27492;DHT22;14927;51.210;6.838;2022-07-22T12:52:06;27.20;46.10
27492;DHT22;14927;51.210;6.838;2022-07-22T12:54:52;27.30;45.50
27492;DHT22;14927;51.210;6.838;2022-07-22T12:57:38;27.40;45.80
27492;DHT22;14927;51.210;6.838;2022-07-22T13:00:27;27.50;46.20
27492;DHT22;14927;51.210;6.838;2022-07-22T13:03:14;27.50;45.60
27492;DHT22;14927;51.210;6.838;2022-07-22T13:06:03;27.60;45.50
27492;DHT22;14927;51.210;6.838;2022-07-22T13:08:49;27.70;44.40
27492;DHT22;14927;51.210;6.838;2022-07-22T13:11:33;27.80;44.00
27492;DHT22;14927;51.210;6.838;2022-07-22T13:14:23;27.80;43.80
27492;DHT22;14927;51.210;6.838;2022-07-22T13:17:08;27.90;43.80
27492;DHT22;14927;51.210;6.838;2022-07-22T13:19:52;28.00;43.80
27492;DHT22;14927;51.210;6.838;2022-07-22T13:22:37;28.00;43.40
27492;DHT22;14927;51.210;6.838;2022-07-22T13:25:22;28.10;43.60
27492;DHT22;14927;51.210;6.838;2022-07-22T13:28:10;28.20;44.20
27492;DHT22;14927;51.210;6.838;2022-07-22T13:30:55;28.20;42.90
27492;DHT22;14927;51.210;6.838;2022-07-22T13:33:39;28.30;42.60
27492;DHT22;14927;51.210;6.838;2022-07-22T13:36:24;28.40;42.50
27492;DHT22;14927;51.210;6.838;2022-07-22T13:39:09;28.50;42.50
27492;DHT22;14927;51.210;6.838;2022-07-22T13:41:53;28.60;42.40
27492;DHT22;14927;51.210;6.838;2022-07-22T13:44:38;28.70;42.20
27492;DHT22;14927;51.210;6.838;2022-07-22T13:47:23;28.80;41.80
27492;DHT22;14927;51.210;6.838;2022-07-22T13:50:08;29.00;41.60
27492;DHT22;14927;51.210;6.838;2022-07-22T13:52:53;29.10;41.40
27492;DHT22;14927;51.210;6.838;2022-07-22T13:55:39;29.30;40.70
27492;DHT22;14927;51.210;6.838;2022-07-22T13:58:24;29.50;40.20
27492;DHT22;14927;51.210;6.838;2022-07-22T14:01:09;29.60;40.40
27492;DHT22;14927;51.210;6.838;2022-07-22T14:03:54;29.70;40.20
27492;DHT22;14927;51.210;6.838;2022-07-22T14:06:38;29.80;40.40
27492;DHT22;14927;51.210;6.838;2022-07-22T14:09:23;29.90;40.60
27492;DHT22;14927;51.210;6.838;2022-07-22T14:12:08;30.00;40.70
27492;DHT22;14927;51.210;6.838;2022-07-22T14:14:53;30.10;40.50
27492;DHT22;14927;51.210;6.838;2022-07-22T14:17:38;30.10;40.30
27492;DHT22;14927;51.210;6.838;2022-07-22T14:20:23;30.20;39.50
27492;DHT22;14927;51.210;6.838;2022-07-22T14:23:08;30.20;39.10
27492;DHT22;14927;51.210;6.838;2022-07-22T14:25:54;30.20;39.00
27492;DHT22;14927;51.210;6.838;2022-07-22T14:28:38;30.20;38.60
27492;DHT22;14927;51.210;6.838;2022-07-22T14:31:23;30.20;38.60
27492;DHT22;14927;51.210;6.838;2022-07-22T14:34:07;30.20;38.30
27492;DHT22;14927;51.210;6.838;2022-07-22T14:36:52;30.20;38.60
27492;DHT22;14927;51.210;6.838;2022-07-22T14:39:37;30.20;38.50
27492;DHT22;14927;51.210;6.838;2022-07-22T14:42:21;30.20;38.10
27492;DHT22;14927;51.210;6.838;2022-07-22T14:45:07;30.20;38.00
27492;DHT22;14927;51.210;6.838;2022-07-22T14:47:53;30.20;38.20
27492;DHT22;14927;51.210;6.838;2022-07-22T14:50:37;30.10;38.10
27492;DHT22;14927;51.210;6.838;2022-07-22T14:53:22;30.10;38.10
27492;DHT22;14927;51.210;6.838;2022-07-22T14:56:08;30.10;38.10
27492;DHT22;14927;51.210;6.838;2022-07-22T14:58:52;30.00;38.20
27492;DHT22;14927;51.210;6.838;2022-07-22T15:01:37;30.00;38.40
27492;DHT22;14927;51.210;6.838;2022-07-22T15:04:22;29.90;38.30
27492;DHT22;14927;51.210;6.838;2022-07-22T15:07:06;29.90;38.60
27492;DHT22;14927;51.210;6.838;2022-07-22T15:09:51;29.80;38.50
27492;DHT22;14927;51.210;6.838;2022-07-22T15:12:36;29.80;38.50
27492;DHT22;14927;51.210;6.838;2022-07-22T15:15:21;29.80;38.40
27492;DHT22;14927;51.210;6.838;2022-07-22T15:18:06;29.70;38.30
27492;DHT22;14927;51.210;6.838;2022-07-22T15:20:50;29.70;38.50
27492;DHT22;14927;51.210;6.838;2022-07-22T15:27:05;29.60;39.30
27492;DHT22;14927;51.210;6.838;2022-07-22T15:29:52;29.60;38.70
27492;DHT22;14927;51.210;6.838;2022-07-22T15:32:38;29.60;38.60
27492;DHT22;14927;51.210;6.838;2022-07-22T15:35:23;29.50;38.50
27492;DHT22;14927;51.210;6.838;2022-07-22T15:38:07;29.40;38.90
27492;DHT22;14927;51.210;6.838;2022-07-22T15:40:53;29.40;39.10
27492;DHT22;14927;51.210;6.838;2022-07-22T15:43:38;29.40;39.50
27492;DHT22;14927;51.210;6.838;2022-07-22T15:46:24;29.30;39.50
27492;DHT22;14927;51.210;6.838;2022-07-22T15:49:09;29.30;39.70
27492;DHT22;14927;51.210;6.838;2022-07-22T15:51:56;29.30;39.50
27492;DHT22;14927;51.210;6.838;2022-07-22T15:54:41;29.30;39.50
27492;DHT22;14927;51.210;6.838;2022-07-22T15:57:25;29.30;39.50
27492;DHT22;14927;51.210;6.838;2022-07-22T16:00:31;29.30;39.50
27492;DHT22;14927;51.210;6.838;2022-07-22T16:03:16;29.20;39.20
27492;DHT22;14927;51.210;6.838;2022-07-22T16:06:01;29.20;39.60
27492;DHT22;14927;51.210;6.838;2022-07-22T16:08:46;29.20;39.50
27492;DHT22;14927;51.210;6.838;2022-07-22T16:11:31;29.20;40.00
27492;DHT22;14927;51.210;6.838;2022-07-22T16:14:17;29.20;39.80
27492;DHT22;14927;51.210;6.838;2022-07-22T16:17:02;29.20;39.80
27492;DHT22;14927;51.210;6.838;2022-07-22T16:19:47;29.20;39.80
27492;DHT22;14927;51.210;6.838;2022-07-22T16:22:32;29.20;39.50
27492;DHT22;14927;51.210;6.838;2022-07-22T16:25:17;29.20;39.30
27492;DHT22;14927;51.210;6.838;2022-07-22T16:28:02;29.20;39.50
27492;DHT22;14927;51.210;6.838;2022-07-22T16:30:46;29.20;39.30
27492;DHT22;14927;51.210;6.838;2022-07-22T16:33:31;29.20;39.00
27492;DHT22;14927;51.210;6.838;2022-07-22T16:36:16;29.20;39.10
27492;DHT22;14927;51.210;6.838;2022-07-22T16:39:01;29.20;39.20
27492;DHT22;14927;51.210;6.838;2022-07-22T16:41:45;29.10;39.10
27492;DHT22;14927;51.210;6.838;2022-07-22T16:44:30;29.10;39.00
27492;DHT22;14927;51.210;6.838;2022-07-22T16:47:15;29.00;39.00
27492;DHT22;14927;51.210;6.838;2022-07-22T16:49:59;29.00;39.00
27492;DHT22;14927;51.210;6.838;2022-07-22T16:52:44;28.90;39.90
27492;DHT22;14927;51.210;6.838;2022-07-22T16:55:30;28.90;39.20
27492;DHT22;14927;51.210;6.838;2022-07-22T16:58:14;28.90;39.40
27492;DHT22;14927;51.210;6.838;2022-07-22T17:00:59;28.80;39.50
27492;DHT22;14927;51.210;6.838;2022-07-22T17:03:44;28.80;39.70
27492;DHT22;14927;51.210;6.838;2022-07-22T17:06:29;28.70;39.70
27492;DHT22;14927;51.210;6.838;2022-07-22T17:09:14;28.60;40.50
27492;DHT22;14927;51.210;6.838;2022-07-22T17:11:59;28.60;40.20
27492;DHT22;14927;51.210;6.838;2022-07-22T17:14:44;28.60;40.10
27492;DHT22;14927;51.210;6.838;2022-07-22T17:17:29;28.50;40.30
27492;DHT22;14927;51.210;6.838;2022-07-22T17:20:13;28.50;40.50
27492;DHT22;14927;51.210;6.838;2022-07-22T17:22:58;28.40;40.20
27492;DHT22;14927;51.210;6.838;2022-07-22T17:25:44;28.40;40.30
27492;DHT22;14927;51.210;6.838;2022-07-22T17:28:29;28.40;40.50
27492;DHT22;14927;51.210;6.838;2022-07-22T17:31:13;28.40;40.70
27492;DHT22;14927;51.210;6.838;2022-07-22T17:33:58;28.40;40.40
27492;DHT22;14927;51.210;6.838;2022-07-22T17:36:44;28.40;40.20
27492;DHT22;14927;51.210;6.838;2022-07-22T17:39:29;28.50;40.30